Main page
METAR-TAF:

METAR-TAF

Airports :

Meeker Airport

Meeker, Colorado, United States

latitude: 40-02-32N, longitude: 107-53-23W, elevation: 6389 ft

Current weather observation

The report was made 51 minutes ago, at 13:53 UTC
Calm wind
Temperature 36°F
Humidity 69%
Pressure 30.30 in. Hg
Visibility: 10 miles
Clear sky

METAR: KEEO 211353Z AUTO 00000KT 10SM CLR 02/M03 A3030 RMK AO2 SLP233 T00171033 $

Time: 08:44 (14:44 UTC)


TAF: missing

Weather observations and forecasts of more than 4000 airports (METAR and TAF reports).

The available stations are represented by yellow and red dots on the map.

Hover mouse over dot to see the name of the station.

Then click to see weather observations and forecasts.

To change the map : click on the green buttons with a black cross to zoom in, on the green button with a dash to zoom out, or on the green arrows for adjacent maps.


METAR-TAF: